Time;durP1;ratioP1;P1;durP2;ratioP2;P2;SDS_P1;SDS_P2;PMS_P1;PMS_P2;Temp;Humidity;BMP_temperature;BMP_pressure;BME280_temperature;BME280_humidity;BME280_pressure;Samples;Min_cycle;Max_cycle;Signal;HPM_P1;HPM_P2
2023/10/28 00:00:43;;;;;;;75.15;62.88;;;18.80;99.90;;;;;;5070166;28;20055;-68
2023/10/28 00:03:09;;;;;;;78.53;63.67;;;18.90;99.90;;;;;;5070105;28;20040;-68
2023/10/28 00:05:35;;;;;;;76.65;62.78;;;19.00;99.90;;;;;;5051542;28;20120;-69
2023/10/28 00:08:01;;;;;;;74.45;63.03;;;19.00;99.90;;;;;;5050396;28;20649;-68
2023/10/28 00:10:28;;;;;;;71.15;62.03;;;18.60;99.90;;;;;;5059461;28;20048;-69
2023/10/28 00:12:54;;;;;;;80.97;64.95;;;19.00;99.90;;;;;;5069740;28;20044;-70
2023/10/28 00:15:20;;;;;;;78.35;65.57;;;18.70;99.90;;;;;;5069645;28;20041;-68
2023/10/28 00:17:47;;;;;;;80.38;64.32;;;18.90;99.90;;;;;;5070020;28;20048;-69
2023/10/28 00:20:17;;;;;;;73.85;61.80;;;19.40;99.90;;;;;;5084627;28;20106;-69
2023/10/28 00:22:45;;;;;;;71.97;62.03;;;19.30;99.90;;;;;;5068782;28;20226;-70
2023/10/28 00:25:15;;;;;;;80.18;65.72;;;18.50;99.90;;;;;;5068336;28;20521;-70
2023/10/28 00:27:42;;;;;;;73.15;61.42;;;18.50;99.90;;;;;;5068716;28;20056;-70
2023/10/28 00:30:11;;;;;;;80.78;64.07;;;18.50;99.90;;;;;;5069883;28;20090;-69
2023/10/28 00:32:40;;;;;;;71.03;59.78;;;18.50;99.90;;;;;;5068685;28;20052;-69
2023/10/28 00:35:07;;;;;;;74.00;60.60;;;19.10;99.90;;;;;;5059907;28;20049;-69
2023/10/28 00:37:34;;;;;;;69.13;61.63;;;18.90;99.90;;;;;;5050105;28;20048;-69
2023/10/28 00:39:59;;;;;;;67.53;60.20;;;19.00;99.90;;;;;;5069317;28;20032;-62
2023/10/28 00:42:25;;;;;;;77.13;59.92;;;18.80;99.90;;;;;;5069354;28;20040;-63
2023/10/28 00:44:54;;;;;;;78.03;61.47;;;18.20;99.90;;;;;;5062271;28;20514;-63
2023/10/28 00:47:22;;;;;;;72.30;61.10;;;18.60;99.90;;;;;;5049476;28;20063;-63
2023/10/28 00:49:49;;;;;;;75.35;62.67;;;18.40;99.90;;;;;;5067133;28;20086;-63
2023/10/28 00:52:17;;;;;;;69.95;60.60;;;18.20;99.90;;;;;;5069009;28;20340;-63
2023/10/28 00:54:43;;;;;;;75.85;62.13;;;18.50;99.90;;;;;;5062489;28;20528;-63
2023/10/28 00:57:09;;;;;;;76.90;63.72;;;18.00;99.90;;;;;;5067326;28;20148;-62
2023/10/28 00:59:34;;;;;;;73.60;61.72;;;18.40;99.90;;;;;;5068763;28;20111;-63
2023/10/28 01:02:00;;;;;;;79.55;64.05;;;18.00;99.90;;;;;;5069347;28;20047;-64
2023/10/28 01:04:26;;;;;;;72.95;62.00;;;18.40;99.90;;;;;;5068503;28;20048;-63
2023/10/28 01:06:51;;;;;;;74.72;64.60;;;18.40;99.90;;;;;;5069178;28;20040;-63
2023/10/28 01:09:18;;;;;;;79.13;62.80;;;18.20;99.90;;;;;;5067509;28;20119;-62
2023/10/28 01:11:44;;;;;;;73.80;63.78;;;18.80;99.90;;;;;;5066918;28;20050;-62
2023/10/28 01:14:11;;;;;;;76.80;63.72;;;18.70;99.90;;;;;;5067995;28;20048;-63
2023/10/28 01:16:36;;;;;;;68.60;61.15;;;18.70;99.90;;;;;;5068830;28;20045;-63
2023/10/28 01:19:02;;;;;;;71.50;59.83;;;18.40;99.90;;;;;;5068978;28;20064;-62
2023/10/28 01:21:28;;;;;;;68.50;60.97;;;18.70;99.90;;;;;;5067689;28;20132;-63
2023/10/28 01:23:54;;;;;;;71.47;60.08;;;18.10;99.90;;;;;;5068879;28;20056;-63
2023/10/28 01:26:20;;;;;;;70.20;60.50;;;18.50;99.90;;;;;;5065345;28;20044;-63
2023/10/28 01:28:46;;;;;;;69.32;59.95;;;18.50;99.90;;;;;;5068997;28;20044;-63
2023/10/28 01:31:12;;;;;;;72.65;59.67;;;18.60;99.90;;;;;;5068560;28;20399;-62
2023/10/28 01:33:38;;;;;;;66.65;58.20;;;18.20;99.90;;;;;;5067486;28;20044;-63
2023/10/28 01:36:03;;;;;;;69.03;59.90;;;18.30;99.90;;;;;;5068111;28;20043;-63
2023/10/28 01:38:29;;;;;;;64.30;57.13;;;18.40;99.90;;;;;;5067206;28;20162;-62
2023/10/28 01:40:56;;;;;;;64.10;56.58;;;18.30;99.90;;;;;;5068256;28;20504;-65
2023/10/28 01:43:22;;;;;;;64.32;57.45;;;18.90;99.90;;;;;;5068168;28;20048;-62
2023/10/28 01:45:48;;;;;;;63.17;56.05;;;18.20;99.90;;;;;;5067644;28;20044;-63
2023/10/28 01:48:14;;;;;;;63.50;56.63;;;19.90;99.90;;;;;;5068180;28;20052;-62
2023/10/28 01:50:41;;;;;;;62.95;53.60;;;18.70;99.90;;;;;;5067878;28;20062;-68
2023/10/28 01:53:06;;;;;;;64.05;57.08;;;18.80;99.90;;;;;;5068726;28;20462;-67
2023/10/28 01:55:32;;;;;;;60.95;53.25;;;18.30;99.90;;;;;;5067453;28;20135;-68
2023/10/28 01:57:58;;;;;;;60.97;54.53;;;18.40;99.90;;;;;;5067047;28;20041;-67
2023/10/28 02:00:26;;;;;;;64.03;54.90;;;18.30;99.90;;;;;;5068671;28;20040;-68
2023/10/28 02:02:52;;;;;;;60.63;54.13;;;18.60;99.90;;;;;;5068683;28;20094;-67
2023/10/28 02:05:18;;;;;;;66.07;55.60;;;18.70;99.90;;;;;;5058549;28;20041;-68
2023/10/28 02:07:45;;;;;;;61.00;53.70;;;18.40;99.90;;;;;;5050160;28;20049;-67
2023/10/28 02:10:11;;;;;;;61.33;53.13;;;18.80;99.90;;;;;;5067844;28;20050;-67
2023/10/28 02:12:37;;;;;;;57.55;51.17;;;18.50;99.90;;;;;;5066774;28;20127;-68
2023/10/28 02:15:08;;;;;;;58.88;50.45;;;18.70;99.90;;;;;;5067574;28;20049;-67
2023/10/28 02:17:35;;;;;;;56.00;50.03;;;19.10;99.90;;;;;;5068013;28;20056;-67
2023/10/28 02:20:02;;;;;;;57.30;51.10;;;19.00;99.90;;;;;;5066783;28;20057;-67
2023/10/28 02:22:28;;;;;;;57.55;50.22;;;18.60;99.90;;;;;;5067748;28;20051;-68
2023/10/28 02:24:53;;;;;;;58.35;50.33;;;18.40;99.90;;;;;;5066777;28;20414;-67
2023/10/28 02:27:19;;;;;;;56.80;50.88;;;19.20;99.90;;;;;;5083260;28;20117;-68
2023/10/28 02:29:45;;;;;;;58.17;48.75;;;18.50;99.90;;;;;;5066082;28;20044;-66
2023/10/28 02:32:10;;;;;;;59.28;49.53;;;19.00;99.90;;;;;;5067596;28;20567;-67
2023/10/28 02:34:36;;;;;;;57.35;51.20;;;18.60;99.90;;;;;;5066835;28;20495;-67
2023/10/28 02:37:02;;;;;;;54.00;48.35;;;19.20;99.90;;;;;;5066200;28;20044;-67
2023/10/28 02:39:29;;;;;;;58.15;48.85;;;18.40;99.90;;;;;;5067018;28;20539;-67
2023/10/28 02:41:55;;;;;;;58.35;49.30;;;18.50;99.90;;;;;;5067694;28;20532;-67
2023/10/28 02:44:21;;;;;;;54.78;48.80;;;18.80;99.90;;;;;;5067481;28;20040;-67
2023/10/28 02:46:46;;;;;;;55.42;47.97;;;18.30;99.90;;;;;;5047569;28;20636;-67
2023/10/28 02:49:12;;;;;;;54.15;48.17;;;18.30;99.90;;;;;;5056998;28;20040;-67
2023/10/28 02:51:38;;;;;;;55.47;48.97;;;18.80;99.90;;;;;;5066614;28;20322;-67
2023/10/28 02:54:04;;;;;;;58.50;49.63;;;18.20;99.90;;;;;;5067232;28;20045;-66
2023/10/28 02:56:30;;;;;;;55.70;49.08;;;18.10;99.90;;;;;;5066604;28;20160;-67
2023/10/28 02:58:57;;;;;;;55.67;49.53;;;18.60;99.90;;;;;;5067186;28;20044;-67
2023/10/28 03:01:22;;;;;;;61.65;49.88;;;18.10;99.90;;;;;;5066789;28;20050;-63
2023/10/28 03:03:48;;;;;;;56.88;50.58;;;18.80;99.90;;;;;;5067290;28;20414;-63
2023/10/28 03:06:14;;;;;;;55.90;49.65;;;18.30;99.90;;;;;;5066210;28;20549;-63
2023/10/28 03:08:39;;;;;;;61.70;52.33;;;18.50;99.90;;;;;;5066756;28;20037;-62
2023/10/28 03:11:06;;;;;;;62.03;53.22;;;17.90;99.90;;;;;;5066364;28;20127;-63
2023/10/28 03:13:31;;;;;;;58.42;51.25;;;18.20;99.90;;;;;;5067055;28;20074;-63
2023/10/28 03:15:57;;;;;;;60.42;51.83;;;18.30;99.90;;;;;;5054183;28;20044;-63
2023/10/28 03:18:23;;;;;;;61.08;51.80;;;17.80;99.90;;;;;;5064820;28;20049;-63
2023/10/28 03:20:48;;;;;;;57.33;51.10;;;18.10;99.90;;;;;;5064142;28;20400;-63
2023/10/28 03:23:14;;;;;;;60.70;52.40;;;18.10;99.90;;;;;;5067022;28;20044;-63
2023/10/28 03:25:41;;;;;;;57.95;51.65;;;17.70;99.90;;;;;;5065588;28;20032;-63
2023/10/28 03:28:06;;;;;;;63.35;53.60;;;18.00;99.90;;;;;;5067027;28;20086;-63
2023/10/28 03:30:32;;;;;;;61.72;52.70;;;17.50;99.90;;;;;;5066179;28;20037;-64
2023/10/28 03:32:58;;;;;;;59.42;50.92;;;17.30;99.90;;;;;;5066595;28;20477;-63
2023/10/28 03:35:24;;;;;;;63.40;53.65;;;17.60;99.90;;;;;;5066201;28;20142;-62
2023/10/28 03:37:50;;;;;;;61.17;52.67;;;17.80;99.90;;;;;;5066600;28;20119;-62
2023/10/28 03:40:15;;;;;;;58.85;52.53;;;17.60;99.90;;;;;;5066397;28;20028;-63
2023/10/28 03:42:41;;;;;;;62.00;52.42;;;17.20;99.90;;;;;;5066077;28;20048;-63
2023/10/28 03:45:07;;;;;;;60.20;53.00;;;17.20;99.90;;;;;;5066056;28;20041;-63
2023/10/28 03:47:36;;;;;;;67.70;53.17;;;17.20;99.90;;;;;;5061364;28;20489;-62
2023/10/28 03:50:02;;;;;;;60.10;52.28;;;17.70;99.90;;;;;;5065898;28;20055;-63
2023/10/28 03:52:28;;;;;;;71.70;53.55;;;17.70;99.90;;;;;;5066672;28;20044;-62
2023/10/28 03:54:53;;;;;;;57.58;51.30;;;17.30;84.00;;;;;;5066652;28;20078;-62
2023/10/28 03:57:19;;;;;;;70.97;54.22;;;17.50;46.80;;;;;;5065693;28;20071;-62
2023/10/28 03:59:46;;;;;;;67.05;53.40;;;17.00;7.60;;;;;;5066235;28;20037;-62
2023/10/28 04:02:12;;;;;;;69.47;54.58;;;17.00;1.00;;;;;;5065974;28;20041;-62
2023/10/28 04:04:37;;;;;;;76.72;56.17;;;17.00;1.00;;;;;;5066315;28;20148;-63
2023/10/28 04:07:04;;;;;;;74.15;57.15;;;18.00;1.00;;;;;;5065458;28;20800;-62
2023/10/28 04:09:29;;;;;;;76.93;57.45;;;17.10;1.00;;;;;;5066889;28;20055;-62
2023/10/28 04:11:55;;;;;;;83.53;57.47;;;17.40;1.00;;;;;;5066163;28;20518;-67
2023/10/28 04:14:20;;;;;;;77.78;58.80;;;16.90;1.00;;;;;;5066455;28;20609;-67
2023/10/28 04:16:46;;;;;;;91.93;61.13;;;17.10;1.00;;;;;;5060713;28;20449;-67
2023/10/28 04:19:12;;;;;;;80.43;56.13;;;17.10;1.00;;;;;;5066112;28;20542;-67
2023/10/28 04:21:37;;;;;;;74.82;56.70;;;17.10;1.00;;;;;;5062594;28;20494;-66
2023/10/28 04:24:04;;;;;;;73.63;55.72;;;16.80;1.00;;;;;;5066650;28;20040;-66
2023/10/28 04:26:30;;;;;;;82.20;57.47;;;17.40;1.00;;;;;;5055728;28;20662;-66
2023/10/28 04:28:59;;;;;;;84.18;58.30;;;17.00;1.00;;;;;;5050598;28;20048;-67
2023/10/28 04:31:29;;;;;;;84.82;57.65;;;17.20;1.00;;;;;;5065503;28;20120;-67
2023/10/28 04:33:55;;;;;;;73.80;57.95;;;17.10;1.00;;;;;;5068346;28;20055;-66
2023/10/28 04:36:21;;;;;;;79.55;55.47;;;17.20;1.00;;;;;;5063927;28;20104;-66
2023/10/28 04:38:47;;;;;;;74.13;55.28;;;17.30;1.00;;;;;;5069645;28;20028;-67
2023/10/28 04:41:12;;;;;;;68.47;54.67;;;17.40;1.00;;;;;;5069228;28;20067;-67
2023/10/28 04:43:39;;;;;;;68.20;54.42;;;17.40;1.00;;;;;;5069683;28;20094;-67
2023/10/28 04:46:05;;;;;;;69.35;53.55;;;16.90;1.00;;;;;;5063290;28;20124;-66
2023/10/28 04:48:32;;;;;;;78.28;58.30;;;16.80;1.00;;;;;;5050010;28;20648;-66
2023/10/28 04:50:57;;;;;;;77.68;59.92;;;16.90;1.00;;;;;;5069421;28;20388;-67
2023/10/28 04:53:23;;;;;;;85.88;61.22;;;17.00;81.20;;;;;;5069670;28;20040;-67
2023/10/28 04:55:49;;;;;;;91.47;62.05;;;17.20;99.90;;;;;;5069122;28;20028;-66
2023/10/28 04:58:14;;;;;;;86.15;61.70;;;17.30;99.90;;;;;;5067902;28;20132;-67
2023/10/28 05:00:41;;;;;;;84.15;62.00;;;17.40;99.90;;;;;;5068877;28;20041;-67
2023/10/28 05:03:07;;;;;;;79.50;60.53;;;17.40;99.90;;;;;;5069850;28;20036;-67
2023/10/28 05:05:32;;;;;;;82.22;60.38;;;18.10;99.90;;;;;;5066631;28;20052;-67
2023/10/28 05:07:58;;;;;;;88.07;60.22;;;17.50;99.90;;;;;;5064789;28;20044;-67
2023/10/28 05:10:24;;;;;;;86.95;60.92;;;17.30;99.90;;;;;;5064671;28;20041;-66
2023/10/28 05:12:50;;;;;;;86.75;60.03;;;17.60;99.90;;;;;;5069106;28;20086;-67
2023/10/28 05:15:15;;;;;;;85.82;60.55;;;17.50;99.90;;;;;;5068758;28;20067;-67
2023/10/28 05:17:41;;;;;;;88.05;63.05;;;17.70;99.90;;;;;;5049771;28;20041;-67
2023/10/28 05:20:08;;;;;;;84.75;58.88;;;18.10;99.90;;;;;;5052880;28;20648;-69
2023/10/28 05:22:35;;;;;;;85.25;58.75;;;18.00;99.90;;;;;;5068947;28;20064;-68
2023/10/28 05:25:03;;;;;;;76.78;59.00;;;18.20;99.90;;;;;;5069167;28;20558;-69
2023/10/28 05:27:29;;;;;;;80.75;59.53;;;17.30;99.90;;;;;;5051296;28;20055;-68
2023/10/28 05:29:55;;;;;;;87.25;61.03;;;17.90;99.90;;;;;;5059286;28;20052;-69
2023/10/28 05:32:20;;;;;;;77.40;59.92;;;17.90;99.90;;;;;;5068931;28;20252;-69
2023/10/28 05:34:46;;;;;;;84.47;57.00;;;17.90;99.90;;;;;;5069080;28;20051;-69
2023/10/28 05:37:11;;;;;;;79.00;59.17;;;17.40;99.90;;;;;;5058948;28;20560;-69
2023/10/28 05:39:40;;;;;;;80.85;58.17;;;17.80;99.90;;;;;;5068474;28;20067;-68
2023/10/28 05:42:06;;;;;;;83.43;56.55;;;17.80;99.90;;;;;;5068619;28;20047;-69
2023/10/28 05:44:32;;;;;;;84.28;56.70;;;17.90;99.90;;;;;;5067831;28;20033;-70
2023/10/28 05:46:59;;;;;;;79.75;55.00;;;17.40;99.90;;;;;;5067554;28;20488;-69
2023/10/28 05:49:25;;;;;;;72.35;55.22;;;17.20;99.90;;;;;;5068055;28;20040;-70
2023/10/28 05:51:51;;;;;;;75.72;53.72;;;17.70;99.90;;;;;;5068292;28;20044;-69
2023/10/28 05:54:16;;;;;;;73.75;54.97;;;18.30;99.90;;;;;;5082993;28;20047;-69
2023/10/28 05:56:42;;;;;;;79.47;54.55;;;17.70;99.90;;;;;;5060777;28;20126;-69
2023/10/28 05:59:08;;;;;;;75.22;55.67;;;17.90;99.90;;;;;;5061840;28;20094;-69
2023/10/28 06:01:35;;;;;;;70.35;55.67;;;18.10;99.90;;;;;;5055293;28;20041;-70
2023/10/28 06:04:01;;;;;;;75.43;57.47;;;18.10;99.90;;;;;;5067720;28;20037;-69
2023/10/28 06:06:27;;;;;;;62.88;54.10;;;18.10;99.90;;;;;;5067479;28;20047;-68
2023/10/28 06:08:54;;;;;;;68.68;56.00;;;18.30;99.90;;;;;;5068110;28;20512;-69
2023/10/28 06:11:19;;;;;;;75.57;55.65;;;17.80;99.90;;;;;;5066906;28;20036;-69
2023/10/28 06:13:45;;;;;;;66.05;55.03;;;18.10;99.90;;;;;;5066306;28;20102;-69
2023/10/28 06:16:11;;;;;;;75.47;59.20;;;17.90;99.90;;;;;;5064938;28;20036;-70
2023/10/28 06:18:39;;;;;;;76.60;56.72;;;17.60;99.90;;;;;;5065599;28;20040;-69
2023/10/28 06:21:05;;;;;;;67.35;56.67;;;17.70;99.90;;;;;;5066021;28;20569;-69
2023/10/28 06:23:30;;;;;;;82.88;56.92;;;17.80;99.90;;;;;;5068369;28;20047;-70
2023/10/28 06:25:56;;;;;;;61.47;54.35;;;18.50;99.90;;;;;;5062860;28;20041;-68
2023/10/28 06:28:21;;;;;;;69.88;56.10;;;18.80;99.90;;;;;;5058446;28;20370;-69
2023/10/28 06:30:48;;;;;;;71.07;55.85;;;18.90;99.90;;;;;;5066719;28;20072;-68
2023/10/28 06:33:13;;;;;;;73.90;57.35;;;18.20;99.90;;;;;;5066677;28;20513;-70
2023/10/28 06:35:39;;;;;;;68.20;55.83;;;18.70;99.90;;;;;;5067350;28;20040;-70
2023/10/28 06:38:06;;;;;;;62.95;53.13;;;18.00;99.90;;;;;;5067074;28;20037;-69
2023/10/28 06:40:32;;;;;;;66.50;53.10;;;18.00;99.90;;;;;;5064530;28;20115;-68
2023/10/28 06:42:58;;;;;;;61.03;52.72;;;18.90;99.90;;;;;;5066276;28;20056;-70
2023/10/28 06:45:23;;;;;;;61.15;52.63;;;18.70;99.90;;;;;;5067955;28;20115;-70
2023/10/28 06:47:50;;;;;;;60.15;51.95;;;18.80;99.90;;;;;;5066599;28;20036;-69
2023/10/28 06:50:19;;;;;;;70.70;53.10;;;18.40;99.90;;;;;;5064676;28;20048;-69
2023/10/28 06:52:47;;;;;;;60.25;52.78;;;18.30;99.90;;;;;;5062957;28;20032;-70
2023/10/28 06:55:13;;;;;;;58.25;51.60;;;18.20;99.90;;;;;;5066826;28;20048;-68
2023/10/28 06:57:38;;;;;;;61.58;52.15;;;19.00;99.90;;;;;;5065701;28;20518;-69
2023/10/28 07:00:05;;;;;;;60.17;52.45;;;18.80;99.90;;;;;;5066590;28;20052;-70
2023/10/28 07:02:32;;;;;;;56.75;50.70;;;18.70;99.90;;;;;;5061649;28;20045;-69
2023/10/28 07:04:58;;;;;;;55.17;49.15;;;19.00;99.90;;;;;;5066941;28;20395;-69
2023/10/28 07:07:23;;;;;;;53.67;48.10;;;18.60;99.90;;;;;;5065759;28;20040;-68
2023/10/28 07:09:49;;;;;;;54.42;47.92;;;18.40;99.90;;;;;;5065929;28;20067;-70
2023/10/28 07:12:15;;;;;;;54.22;47.85;;;19.20;99.90;;;;;;5066092;28;20147;-69
2023/10/28 07:14:40;;;;;;;55.60;49.72;;;19.20;99.90;;;;;;5065148;28;20430;-68
2023/10/28 07:17:06;;;;;;;54.72;48.75;;;18.50;99.90;;;;;;5063494;28;20045;-70
2023/10/28 07:19:31;;;;;;;53.53;47.97;;;19.20;99.90;;;;;;5058606;28;20807;-69
2023/10/28 07:21:57;;;;;;;52.35;46.95;;;18.60;99.90;;;;;;5062156;28;20040;-69
2023/10/28 07:24:23;;;;;;;51.80;44.72;;;19.30;99.90;;;;;;5067040;28;20040;-70
2023/10/28 07:26:51;;;;;;;53.22;47.75;;;18.70;99.90;;;;;;5065782;28;20048;-69
2023/10/28 07:29:17;;;;;;;51.83;46.55;;;19.30;99.90;;;;;;5066962;28;20072;-69
2023/10/28 07:31:42;;;;;;;51.65;46.22;;;19.10;99.90;;;;;;5066815;28;20642;-68
2023/10/28 07:34:08;;;;;;;50.47;45.10;;;18.60;99.90;;;;;;5066263;28;20115;-68
2023/10/28 07:36:34;;;;;;;53.03;47.55;;;19.30;99.90;;;;;;5066224;28;20041;-66
2023/10/28 07:39:01;;;;;;;52.20;46.92;;;19.30;99.90;;;;;;5077260;28;20043;-67
2023/10/28 07:41:30;;;;;;;50.67;45.67;;;18.70;99.90;;;;;;5066520;28;20483;-66
2023/10/28 07:43:56;;;;;;;53.22;47.60;;;19.20;99.90;;;;;;5066422;28;20074;-67
2023/10/28 07:46:23;;;;;;;52.35;46.72;;;18.80;99.90;;;;;;5066425;28;20497;-66
2023/10/28 07:48:49;;;;;;;50.65;45.22;;;19.20;99.90;;;;;;5063814;28;20514;-67
2023/10/28 07:51:17;;;;;;;51.28;46.08;;;19.40;99.90;;;;;;5066287;28;20036;-67
2023/10/28 07:53:44;;;;;;;50.28;45.08;;;18.90;99.90;;;;;;5066452;28;20430;-67
2023/10/28 07:56:09;;;;;;;51.22;43.80;;;19.30;99.90;;;;;;5065805;28;20044;-67
2023/10/28 07:58:35;;;;;;;48.78;43.65;;;18.90;99.90;;;;;;5065042;28;20427;-67
2023/10/28 08:01:03;;;;;;;50.55;43.95;;;19.60;99.90;;;;;;5059957;28;20070;-67
2023/10/28 08:03:29;;;;;;;50.92;45.65;;;20.20;99.90;;;;;;5064747;28;20115;-66
2023/10/28 08:05:55;;;;;;;51.42;45.92;;;19.20;99.90;;;;;;5058778;28;20041;-67
2023/10/28 08:08:21;;;;;;;48.92;44.03;;;18.80;99.90;;;;;;5063082;28;20141;-67
2023/10/28 08:10:46;;;;;;;50.83;45.28;;;19.30;99.90;;;;;;5062975;28;20032;-67
2023/10/28 08:13:12;;;;;;;50.15;45.10;;;20.00;99.90;;;;;;5069097;28;20136;-67
2023/10/28 08:15:39;;;;;;;49.08;43.97;;;19.50;99.90;;;;;;5065732;28;20075;-66
2023/10/28 08:18:05;;;;;;;47.50;42.72;;;19.40;99.90;;;;;;5054116;28;20049;-67
2023/10/28 08:20:30;;;;;;;48.58;43.50;;;19.50;99.90;;;;;;5065514;28;20512;-66
2023/10/28 08:22:56;;;;;;;48.00;43.17;;;19.00;99.90;;;;;;5069816;28;20471;-67
2023/10/28 08:25:22;;;;;;;47.50;42.40;;;19.00;99.90;;;;;;5062762;28;20048;-67
2023/10/28 08:27:48;;;;;;;50.08;44.88;;;18.90;99.90;;;;;;5059077;28;20068;-68
2023/10/28 08:30:20;;;;;;;48.78;42.28;;;19.50;99.90;;;;;;5065071;28;20184;-66
2023/10/28 08:32:46;;;;;;;47.42;42.83;;;19.50;99.90;;;;;;5067730;28;20131;-66
2023/10/28 08:35:12;;;;;;;47.65;42.72;;;19.50;99.90;;;;;;5065746;28;20044;-67
2023/10/28 08:37:37;;;;;;;46.67;41.88;;;19.60;99.90;;;;;;5069719;28;20044;-67
2023/10/28 08:40:08;;;;;;;45.38;40.92;;;19.30;99.90;;;;;;5068507;28;20139;-68
2023/10/28 08:42:34;;;;;;;47.28;42.35;;;19.60;99.90;;;;;;5069763;28;20048;-68
2023/10/28 08:45:05;;;;;;;44.05;39.75;;;19.30;99.90;;;;;;5068917;28;20802;-67
2023/10/28 08:47:36;;;;;;;43.72;39.15;;;19.50;99.90;;;;;;5070195;28;20167;-68
2023/10/28 08:50:06;;;;;;;43.97;39.55;;;19.60;99.90;;;;;;5069642;28;20683;-67
2023/10/28 08:52:35;;;;;;;46.45;38.58;;;19.20;99.90;;;;;;5069840;28;20040;-62
2023/10/28 08:55:02;;;;;;;43.25;38.55;;;19.20;99.90;;;;;;5068694;28;20419;-62
2023/10/28 08:57:29;;;;;;;46.53;37.85;;;19.70;99.90;;;;;;5065323;28;20063;-65
2023/10/28 08:59:54;;;;;;;44.08;39.22;;;19.30;99.90;;;;;;5067118;28;20488;-62
2023/10/28 09:02:23;;;;;;;42.45;37.80;;;19.90;99.90;;;;;;5067659;28;20032;-62
2023/10/28 09:04:48;;;;;;;42.83;36.90;;;19.90;99.90;;;;;;5067561;28;20032;-63
2023/10/28 09:07:14;;;;;;;41.58;37.22;;;19.50;99.90;;;;;;5065422;28;20101;-62
2023/10/28 09:09:40;;;;;;;41.63;37.03;;;19.70;99.90;;;;;;5067063;28;20047;-62
2023/10/28 09:12:09;;;;;;;41.90;37.53;;;19.90;99.90;;;;;;5065474;28;20040;-64
2023/10/28 09:14:34;;;;;;;40.38;36.03;;;19.90;99.90;;;;;;5067652;28;20041;-66
2023/10/28 09:17:02;;;;;;;40.33;36.33;;;19.40;99.90;;;;;;5067519;28;20048;-62
2023/10/28 09:19:29;;;;;;;41.70;37.35;;;19.50;99.90;;;;;;5065660;28;20489;-62
2023/10/28 09:21:55;;;;;;;41.20;36.83;;;19.50;99.90;;;;;;5058377;28;20087;-63
2023/10/28 09:24:23;;;;;;;42.28;37.85;;;19.70;99.90;;;;;;5068882;28;20494;-62
2023/10/28 09:26:50;;;;;;;41.78;37.35;;;19.50;99.90;;;;;;5067321;28;20497;-62
2023/10/28 09:29:29;;;;;;;41.63;37.45;;;19.50;99.90;;;;;;5063286;28;20461;-64
2023/10/28 09:32:04;;;;;;;41.42;37.25;;;20.00;91.70;;;;;;5066658;28;20093;-62
2023/10/28 09:34:30;;;;;;;39.65;35.58;;;19.60;27.70;;;;;;5068047;28;20398;-63
2023/10/28 09:36:56;;;;;;;40.58;36.63;;;19.50;1.00;;;;;;5067861;28;20135;-63
2023/10/28 09:39:24;;;;;;;41.80;37.67;;;19.80;1.00;;;;;;5066610;28;20427;-64
2023/10/28 09:41:52;;;;;;;41.75;37.28;;;19.50;1.00;;;;;;5067277;28;20430;-63
2023/10/28 09:44:19;;;;;;;40.33;36.38;;;19.50;99.90;;;;;;5066631;28;20056;-63
2023/10/28 09:46:48;;;;;;;40.78;36.42;;;19.50;99.90;;;;;;5065567;28;20048;-64
2023/10/28 09:49:17;;;;;;;40.55;36.30;;;19.90;99.90;;;;;;5065721;28;20044;-64
2023/10/28 09:51:44;;;;;;;40.83;36.72;;;19.90;99.90;;;;;;5067035;28;20044;-62
2023/10/28 09:54:19;;;;;;;40.97;36.55;;;20.20;99.90;;;;;;5066728;28;20116;-61
2023/10/28 09:56:47;;;;;;;38.92;35.05;;;19.90;99.90;;;;;;5063745;28;20040;-64
2023/10/28 09:59:19;;;;;;;44.33;36.42;;;19.80;45.50;;;;;;5065340;28;20068;-63
2023/10/28 10:02:01;;;;;;;40.33;36.03;;;19.70;1.00;;;;;;5063830;28;20028;-62
2023/10/28 10:04:44;;;;;;;39.72;35.42;;;19.70;1.00;;;;;;5066000;28;20043;-63
2023/10/28 10:07:10;;;;;;;39.83;35.72;;;19.70;1.00;;;;;;5061677;28;20041;-62
2023/10/28 10:09:42;;;;;;;39.97;35.65;;;20.00;1.00;;;;;;5062592;28;20127;-63
2023/10/28 10:12:08;;;;;;;37.85;33.85;;;19.40;99.90;;;;;;5063740;28;20086;-65
2023/10/28 10:14:38;;;;;;;41.20;36.15;;;19.50;99.90;;;;;;5066184;28;20071;-63
2023/10/28 10:17:21;;;;;;;44.58;39.38;;;19.50;99.90;;;;;;5063114;28;20045;-64
2023/10/28 10:19:48;;;;;;;40.13;35.80;;;19.60;99.90;;;;;;5065006;28;20056;-62
2023/10/28 10:22:16;;;;;;;39.97;35.80;;;20.10;99.90;;;;;;5064265;28;20052;-64
2023/10/28 10:24:49;;;;;;;39.40;35.65;;;19.70;99.90;;;;;;5082035;28;20041;-62
2023/10/28 10:27:15;;;;;;;41.00;36.75;;;19.60;99.90;;;;;;5062144;28;20098;-64
2023/10/28 10:29:41;;;;;;;41.28;37.10;;;20.00;81.80;;;;;;5064176;28;20075;-63
2023/10/28 10:32:17;;;;;;;45.38;36.75;;;20.40;40.30;;;;;;5065653;28;20064;-63
2023/10/28 10:34:45;;;;;;;42.25;37.72;;;19.70;1.00;;;;;;5067395;28;20229;-63
2023/10/28 10:37:24;;;;;;;40.65;36.47;;;20.10;1.00;;;;;;5065705;28;20036;-64
2023/10/28 10:39:49;;;;;;;42.30;37.88;;;20.10;1.00;;;;;;5066513;28;20110;-65
2023/10/28 10:42:16;;;;;;;43.40;37.58;;;19.90;1.00;;;;;;5065781;28;20072;-63
2023/10/28 10:44:41;;;;;;;41.50;37.10;;;19.80;1.00;;;;;;5067024;28;20041;-62
2023/10/28 10:47:12;;;;;;;40.53;35.38;;;20.20;1.00;;;;;;5061473;28;20037;-63
2023/10/28 10:49:39;;;;;;;40.60;36.40;;;19.60;99.90;;;;;;5066239;28;20808;-62
2023/10/28 10:52:06;;;;;;;42.67;36.63;;;20.20;99.90;;;;;;5066653;28;20591;-63
2023/10/28 10:54:34;;;;;;;40.65;36.45;;;20.20;1.00;;;;;;5067244;28;20589;-62
2023/10/28 10:57:00;;;;;;;42.30;36.63;;;20.30;1.00;;;;;;5062310;28;20036;-63
2023/10/28 10:59:28;;;;;;;43.92;36.80;;;20.50;1.00;;;;;;5065610;28;20042;-62
2023/10/28 11:01:59;;;;;;;42.67;38.05;;;20.10;1.00;;;;;;5065199;28;20502;-62
2023/10/28 11:04:25;;;;;;;41.95;36.70;;;20.40;1.00;;;;;;5067456;28;20631;-62
2023/10/28 11:06:51;;;;;;;43.03;36.63;;;19.90;1.00;;;;;;5064208;28;20051;-62
2023/10/28 11:09:17;;;;;;;40.35;36.10;;;19.70;1.00;;;;;;5066375;28;20036;-63
2023/10/28 11:11:43;;;;;;;40.30;35.80;;;20.50;1.00;;;;;;5062782;28;20102;-62
2023/10/28 11:14:09;;;;;;;40.47;36.17;;;20.60;1.00;;;;;;5064383;28;20076;-63
2023/10/28 11:16:35;;;;;;;40.40;36.15;;;20.40;7.90;;;;;;5063071;28;20044;-63
2023/10/28 11:19:04;;;;;;;41.13;36.83;;;19.90;9.40;;;;;;5063328;28;20452;-62
2023/10/28 11:21:31;;;;;;;41.03;36.63;;;20.50;27.60;;;;;;5057583;28;20052;-61
2023/10/28 11:23:57;;;;;;;39.67;35.45;;;19.80;50.10;;;;;;5061853;28;20032;-62
2023/10/28 11:26:24;;;;;;;39.08;34.85;;;19.80;72.70;;;;;;5060550;28;20124;-63
2023/10/28 11:28:49;;;;;;;44.17;37.75;;;20.50;84.00;;;;;;5065034;28;20043;-63
2023/10/28 11:31:19;;;;;;;44.80;37.22;;;19.80;99.90;;;;;;5065763;28;20774;-62
2023/10/28 11:33:45;;;;;;;42.47;37.45;;;19.80;99.90;;;;;;5065283;28;20033;-62
2023/10/28 11:36:11;;;;;;;41.38;37.08;;;20.30;99.90;;;;;;5064308;28;20048;-62
2023/10/28 11:38:37;;;;;;;42.45;35.72;;;19.90;99.90;;;;;;5065460;28;20416;-62
2023/10/28 11:41:07;;;;;;;39.70;35.45;;;20.60;99.90;;;;;;5060396;28;20059;-62
2023/10/28 11:43:36;;;;;;;40.30;35.65;;;20.60;99.90;;;;;;5069980;28;20502;-63
2023/10/28 11:46:02;;;;;;;43.53;36.50;;;19.80;99.90;;;;;;5071208;28;20432;-62
2023/10/28 11:48:28;;;;;;;41.75;36.33;;;20.60;99.90;;;;;;5069458;28;20046;-61
2023/10/28 11:50:56;;;;;;;38.20;34.38;;;20.00;99.90;;;;;;5074429;28;20049;-63
2023/10/28 11:53:26;;;;;;;39.47;35.28;;;20.10;99.90;;;;;;5071292;28;20048;-63
2023/10/28 11:55:53;;;;;;;46.13;36.38;;;20.10;99.90;;;;;;5070155;28;20581;-62
2023/10/28 11:58:19;;;;;;;39.47;35.20;;;20.70;99.90;;;;;;5072299;28;20479;-64
2023/10/28 12:00:50;;;;;;;40.42;36.15;;;20.70;99.90;;;;;;5072753;28;20041;-63
2023/10/28 12:03:17;;;;;;;41.30;34.92;;;20.60;99.90;;;;;;5073104;28;20052;-62
2023/10/28 12:05:42;;;;;;;39.20;35.10;;;20.10;99.90;;;;;;5072603;28;20549;-63
2023/10/28 12:08:10;;;;;;;43.38;35.38;;;20.60;99.90;;;;;;5066854;28;20041;-62
2023/10/28 12:10:38;;;;;;;40.88;35.83;;;20.20;99.90;;;;;;5065558;28;20048;-63
2023/10/28 12:13:03;;;;;;;42.53;36.40;;;20.20;99.90;;;;;;5073506;28;20055;-63
2023/10/28 12:15:29;;;;;;;41.35;35.67;;;20.90;99.90;;;;;;5072607;28;20494;-62
2023/10/28 12:17:54;;;;;;;40.67;36.10;;;20.40;99.90;;;;;;5067180;28;20472;-62
2023/10/28 12:20:20;;;;;;;39.78;35.38;;;20.60;99.90;;;;;;5064613;28;20084;-63
2023/10/28 12:22:46;;;;;;;37.28;33.30;;;20.50;99.90;;;;;;5053219;28;20373;-63
2023/10/28 12:25:13;;;;;;;42.55;35.33;;;21.00;99.90;;;;;;5069806;28;20076;-63